Main page
METAR-TAF:

METAR-TAF

Airports :

Helsinki Airport

Helsinki, Finland

latitude: 60-19N, longitude: 024-58E, elevation: 51 m

Current weather observation

The report was made 26 minutes ago, at 13:20 UTC
Wind 9 kt from the West/Northwest
Temperature 17°C
Humidity 34%
Pressure 1022 hPa
Visibility 10 km or more
Few clouds at a height of 6000 ft, Cumulonimbus.
showers in vicinity

METAR: EFHK 281320Z 29009KT 9999 VCSH FEW060CB 17/01 Q1022 BECMG NSC

Time: 16:46 (13:46 UTC)

Forecast

The report was made 2 hours and 11 minutes ago, at 11:35 UTC
Forecast valid from 28 at 12 UTC to 29 at 12 UTC
Wind 13 kt from the Northwest
Visibility 10 km or more
no clouds below 1500 m and no cumulonimbus
Probability 40% :
Temporary
from 28 at 12 UTC to 28 at 15 UTC
Scattered clouds at a height of 5000 ft, Cumulonimbus.

TAF: EFHK 281135Z 2812/2912 31013KT CAVOK PROB40 TEMPO 2812/2815 SCT050CB

Weather observations and forecasts of more than 4000 airports (METAR and TAF reports).

The available stations are represented by yellow and red dots on the map.

Hover mouse over dot to see the name of the station.

Then click to see weather observations and forecasts.

To change the map : click on the green buttons with a black cross to zoom in, on the green button with a dash to zoom out, or on the green arrows for adjacent maps.


METAR-TAF: